sensor_id;sensor_type;location;lat;lon;timestamp;temperature;humidity
72883;DHT22;61017;37.812;-122.286;2023-03-23T00:00:27;17.00;67.80
72883;DHT22;61017;37.812;-122.286;2023-03-23T00:01:59;16.90;67.60
72883;DHT22;61017;37.812;-122.286;2023-03-23T00:03:31;16.80;67.70
72883;DHT22;61017;37.812;-122.286;2023-03-23T00:05:03;16.80;69.20
72883;DHT22;61017;37.812;-122.286;2023-03-23T00:06:35;16.60;72.00
72883;DHT22;61017;37.812;-122.286;2023-03-23T00:08:07;16.70;68.50
72883;DHT22;61017;37.812;-122.286;2023-03-23T00:09:39;16.70;67.80
72883;DHT22;61017;37.812;-122.286;2023-03-23T00:11:16;16.30;70.70
72883;DHT22;61017;37.812;-122.286;2023-03-23T00:12:47;16.00;72.00
72883;DHT22;61017;37.812;-122.286;2023-03-23T00:14:19;15.80;72.60
72883;DHT22;61017;37.812;-122.286;2023-03-23T00:15:50;15.50;72.70
72883;DHT22;61017;37.812;-122.286;2023-03-23T00:17:22;15.40;74.00
72883;DHT22;61017;37.812;-122.286;2023-03-23T00:18:54;15.30;74.60
72883;DHT22;61017;37.812;-122.286;2023-03-23T00:20:26;15.20;75.60
72883;DHT22;61017;37.812;-122.286;2023-03-23T00:21:57;15.20;76.40
72883;DHT22;61017;37.812;-122.286;2023-03-23T00:23:29;15.10;76.80
72883;DHT22;61017;37.812;-122.286;2023-03-23T00:25:01;15.10;75.20
72883;DHT22;61017;37.812;-122.286;2023-03-23T00:26:33;15.20;76.50
72883;DHT22;61017;37.812;-122.286;2023-03-23T00:28:05;15.10;76.90
72883;DHT22;61017;37.812;-122.286;2023-03-23T00:29:36;15.10;78.40
72883;DHT22;61017;37.812;-122.286;2023-03-23T00:31:09;15.00;78.60
72883;DHT22;61017;37.812;-122.286;2023-03-23T00:32:41;15.00;77.90
72883;DHT22;61017;37.812;-122.286;2023-03-23T00:34:17;15.00;77.60
72883;DHT22;61017;37.812;-122.286;2023-03-23T00:35:50;15.00;78.40
72883;DHT22;61017;37.812;-122.286;2023-03-23T00:37:22;15.00;78.10
72883;DHT22;61017;37.812;-122.286;2023-03-23T00:38:53;14.90;78.00
72883;DHT22;61017;37.812;-122.286;2023-03-23T00:40:25;15.00;79.00
72883;DHT22;61017;37.812;-122.286;2023-03-23T00:41:57;14.90;79.40
72883;DHT22;61017;37.812;-122.286;2023-03-23T00:43:29;14.90;79.40
72883;DHT22;61017;37.812;-122.286;2023-03-23T00:45:01;14.80;77.90
72883;DHT22;61017;37.812;-122.286;2023-03-23T00:46:32;14.80;77.20
72883;DHT22;61017;37.812;-122.286;2023-03-23T00:48:04;14.80;79.40
72883;DHT22;61017;37.812;-122.286;2023-03-23T00:49:36;14.80;79.70
72883;DHT22;61017;37.812;-122.286;2023-03-23T00:51:08;14.80;78.90
72883;DHT22;61017;37.812;-122.286;2023-03-23T00:57:42;14.70;78.70
72883;DHT22;61017;37.812;-122.286;2023-03-23T00:59:14;14.80;78.50
72883;DHT22;61017;37.812;-122.286;2023-03-23T01:00:46;14.80;79.40
72883;DHT22;61017;37.812;-122.286;2023-03-23T01:02:17;14.80;81.30
72883;DHT22;61017;37.812;-122.286;2023-03-23T01:03:49;14.90;81.20
72883;DHT22;61017;37.812;-122.286;2023-03-23T01:05:21;14.80;83.80
72883;DHT22;61017;37.812;-122.286;2023-03-23T01:06:52;14.80;83.30
72883;DHT22;61017;37.812;-122.286;2023-03-23T01:08:24;14.80;84.30
72883;DHT22;61017;37.812;-122.286;2023-03-23T01:09:55;14.70;85.10
72883;DHT22;61017;37.812;-122.286;2023-03-23T01:11:27;14.70;85.60
72883;DHT22;61017;37.812;-122.286;2023-03-23T01:12:59;14.70;84.80
72883;DHT22;61017;37.812;-122.286;2023-03-23T01:14:31;14.70;85.10
72883;DHT22;61017;37.812;-122.286;2023-03-23T01:16:03;14.70;85.30
72883;DHT22;61017;37.812;-122.286;2023-03-23T01:17:34;14.70;85.60
72883;DHT22;61017;37.812;-122.286;2023-03-23T01:19:06;14.80;85.00
72883;DHT22;61017;37.812;-122.286;2023-03-23T01:20:38;14.80;84.60
72883;DHT22;61017;37.812;-122.286;2023-03-23T01:22:09;14.90;83.80
72883;DHT22;61017;37.812;-122.286;2023-03-23T01:23:41;14.90;85.30
72883;DHT22;61017;37.812;-122.286;2023-03-23T01:25:35;14.70;86.00
72883;DHT22;61017;37.812;-122.286;2023-03-23T01:27:07;14.60;85.60
72883;DHT22;61017;37.812;-122.286;2023-03-23T01:28:38;14.50;87.10
72883;DHT22;61017;37.812;-122.286;2023-03-23T01:30:11;14.50;87.20
72883;DHT22;61017;37.812;-122.286;2023-03-23T01:31:43;14.50;87.10
72883;DHT22;61017;37.812;-122.286;2023-03-23T01:33:14;14.50;85.70
72883;DHT22;61017;37.812;-122.286;2023-03-23T01:34:46;14.50;85.30
72883;DHT22;61017;37.812;-122.286;2023-03-23T01:36:20;14.50;85.40
72883;DHT22;61017;37.812;-122.286;2023-03-23T01:37:52;14.30;85.20
72883;DHT22;61017;37.812;-122.286;2023-03-23T01:39:25;14.30;86.10
72883;DHT22;61017;37.812;-122.286;2023-03-23T01:40:56;14.20;86.00
72883;DHT22;61017;37.812;-122.286;2023-03-23T01:42:34;14.20;84.60
72883;DHT22;61017;37.812;-122.286;2023-03-23T01:45:49;14.10;84.00
72883;DHT22;61017;37.812;-122.286;2023-03-23T01:47:22;14.10;83.30
72883;DHT22;61017;37.812;-122.286;2023-03-23T01:48:56;14.10;83.20
72883;DHT22;61017;37.812;-122.286;2023-03-23T01:50:29;14.00;84.00
72883;DHT22;61017;37.812;-122.286;2023-03-23T01:52:11;13.90;84.70
72883;DHT22;61017;37.812;-122.286;2023-03-23T01:53:59;13.90;85.80
72883;DHT22;61017;37.812;-122.286;2023-03-23T01:55:32;13.90;85.00
72883;DHT22;61017;37.812;-122.286;2023-03-23T01:57:26;13.90;84.60
72883;DHT22;61017;37.812;-122.286;2023-03-23T01:58:58;14.00;84.50
72883;DHT22;61017;37.812;-122.286;2023-03-23T02:00:30;13.90;84.20
72883;DHT22;61017;37.812;-122.286;2023-03-23T02:02:01;13.90;84.80
72883;DHT22;61017;37.812;-122.286;2023-03-23T02:03:35;13.80;85.10
72883;DHT22;61017;37.812;-122.286;2023-03-23T02:05:13;13.70;86.10
72883;DHT22;61017;37.812;-122.286;2023-03-23T02:06:45;13.80;85.70
72883;DHT22;61017;37.812;-122.286;2023-03-23T02:08:17;13.80;85.90
72883;DHT22;61017;37.812;-122.286;2023-03-23T02:09:52;13.80;86.00
72883;DHT22;61017;37.812;-122.286;2023-03-23T02:11:24;13.80;85.70
72883;DHT22;61017;37.812;-122.286;2023-03-23T02:12:56;13.90;86.00
72883;DHT22;61017;37.812;-122.286;2023-03-23T02:14:28;13.90;86.00
72883;DHT22;61017;37.812;-122.286;2023-03-23T02:16:09;13.80;86.90
72883;DHT22;61017;37.812;-122.286;2023-03-23T02:26:44;13.80;87.50
72883;DHT22;61017;37.812;-122.286;2023-03-23T02:34:01;13.80;88.00
72883;DHT22;61017;37.812;-122.286;2023-03-23T02:35:40;13.70;87.80
72883;DHT22;61017;37.812;-122.286;2023-03-23T02:37:42;13.70;87.80
72883;DHT22;61017;37.812;-122.286;2023-03-23T02:39:22;13.70;87.90
72883;DHT22;61017;37.812;-122.286;2023-03-23T02:40:57;13.70;89.10
72883;DHT22;61017;37.812;-122.286;2023-03-23T02:42:31;13.70;88.50
72883;DHT22;61017;37.812;-122.286;2023-03-23T02:44:05;13.70;87.90
72883;DHT22;61017;37.812;-122.286;2023-03-23T02:45:39;13.70;87.80
72883;DHT22;61017;37.812;-122.286;2023-03-23T02:47:16;13.70;87.90
72883;DHT22;61017;37.812;-122.286;2023-03-23T02:48:49;13.70;87.90
72883;DHT22;61017;37.812;-122.286;2023-03-23T02:50:23;13.70;87.60
72883;DHT22;61017;37.812;-122.286;2023-03-23T02:51:58;13.70;88.00
72883;DHT22;61017;37.812;-122.286;2023-03-23T02:53:31;13.70;88.90
72883;DHT22;61017;37.812;-122.286;2023-03-23T02:55:04;13.70;88.10
72883;DHT22;61017;37.812;-122.286;2023-03-23T02:56:37;13.70;87.50
72883;DHT22;61017;37.812;-122.286;2023-03-23T02:58:11;13.70;87.30
72883;DHT22;61017;37.812;-122.286;2023-03-23T02:59:43;13.70;87.30
72883;DHT22;61017;37.812;-122.286;2023-03-23T03:02:59;13.70;87.20
72883;DHT22;61017;37.812;-122.286;2023-03-23T03:04:32;13.60;88.10
72883;DHT22;61017;37.812;-122.286;2023-03-23T03:11:22;15.10;76.40
72883;DHT22;61017;37.812;-122.286;2023-03-23T03:13:07;15.30;74.40
72883;DHT22;61017;37.812;-122.286;2023-03-23T03:14:51;15.40;73.10
72883;DHT22;61017;37.812;-122.286;2023-03-23T03:16:48;15.30;75.30
72883;DHT22;61017;37.812;-122.286;2023-03-23T03:20:14;15.50;71.90
72883;DHT22;61017;37.812;-122.286;2023-03-23T03:21:47;15.70;70.60
72883;DHT22;61017;37.812;-122.286;2023-03-23T03:23:22;15.70;70.30
72883;DHT22;61017;37.812;-122.286;2023-03-23T03:24:57;15.70;69.50
72883;DHT22;61017;37.812;-122.286;2023-03-23T03:26:33;15.80;68.50
72883;DHT22;61017;37.812;-122.286;2023-03-23T03:28:05;15.60;71.00
72883;DHT22;61017;37.812;-122.286;2023-03-23T03:29:39;15.70;71.00
72883;DHT22;61017;37.812;-122.286;2023-03-23T03:31:11;15.80;69.00
72883;DHT22;61017;37.812;-122.286;2023-03-23T03:32:48;15.80;68.50
72883;DHT22;61017;37.812;-122.286;2023-03-23T03:34:20;15.90;67.80
72883;DHT22;61017;37.812;-122.286;2023-03-23T03:35:54;15.90;66.90
72883;DHT22;61017;37.812;-122.286;2023-03-23T03:37:26;15.90;66.60
72883;DHT22;61017;37.812;-122.286;2023-03-23T03:39:00;15.90;67.90
72883;DHT22;61017;37.812;-122.286;2023-03-23T03:40:33;15.80;71.10
72883;DHT22;61017;37.812;-122.286;2023-03-23T03:42:06;15.90;67.80
72883;DHT22;61017;37.812;-122.286;2023-03-23T03:43:38;16.00;66.80
72883;DHT22;61017;37.812;-122.286;2023-03-23T03:45:12;16.00;66.50
72883;DHT22;61017;37.812;-122.286;2023-03-23T03:46:44;16.00;66.00
72883;DHT22;61017;37.812;-122.286;2023-03-23T03:48:16;16.10;65.30
72883;DHT22;61017;37.812;-122.286;2023-03-23T03:49:47;16.10;65.30
72883;DHT22;61017;37.812;-122.286;2023-03-23T03:51:19;16.00;66.60
72883;DHT22;61017;37.812;-122.286;2023-03-23T03:52:50;15.90;68.30
72883;DHT22;61017;37.812;-122.286;2023-03-23T03:54:22;16.00;66.30
72883;DHT22;61017;37.812;-122.286;2023-03-23T03:55:54;16.10;65.80
72883;DHT22;61017;37.812;-122.286;2023-03-23T03:57:25;16.10;65.70
72883;DHT22;61017;37.812;-122.286;2023-03-23T03:58:57;16.10;65.00
72883;DHT22;61017;37.812;-122.286;2023-03-23T04:00:28;16.20;64.70
72883;DHT22;61017;37.812;-122.286;2023-03-23T04:02:00;16.10;64.60
72883;DHT22;61017;37.812;-122.286;2023-03-23T04:03:31;16.00;67.20
72883;DHT22;61017;37.812;-122.286;2023-03-23T04:05:03;16.00;66.90
72883;DHT22;61017;37.812;-122.286;2023-03-23T04:06:35;16.20;65.70
72883;DHT22;61017;37.812;-122.286;2023-03-23T04:08:07;16.20;65.20
72883;DHT22;61017;37.812;-122.286;2023-03-23T04:09:39;16.20;64.80
72883;DHT22;61017;37.812;-122.286;2023-03-23T04:11:12;16.20;64.50
72883;DHT22;61017;37.812;-122.286;2023-03-23T04:12:44;16.30;64.40
72883;DHT22;61017;37.812;-122.286;2023-03-23T04:14:16;16.20;65.80
72883;DHT22;61017;37.812;-122.286;2023-03-23T04:15:48;16.00;69.00
72883;DHT22;61017;37.812;-122.286;2023-03-23T04:17:20;16.10;66.30
72883;DHT22;61017;37.812;-122.286;2023-03-23T04:18:51;16.20;65.30
72883;DHT22;61017;37.812;-122.286;2023-03-23T04:20:23;16.20;65.20
72883;DHT22;61017;37.812;-122.286;2023-03-23T04:21:55;16.20;64.60
72883;DHT22;61017;37.812;-122.286;2023-03-23T04:23:28;16.20;64.60
72883;DHT22;61017;37.812;-122.286;2023-03-23T04:25:01;16.30;64.30
72883;DHT22;61017;37.812;-122.286;2023-03-23T04:26:32;16.20;66.10
72883;DHT22;61017;37.812;-122.286;2023-03-23T04:28:04;16.10;67.30
72883;DHT22;61017;37.812;-122.286;2023-03-23T04:29:35;16.20;65.20
72883;DHT22;61017;37.812;-122.286;2023-03-23T04:31:07;16.20;64.80
72883;DHT22;61017;37.812;-122.286;2023-03-23T04:32:39;16.30;64.40
72883;DHT22;61017;37.812;-122.286;2023-03-23T04:34:12;16.30;64.10
72883;DHT22;61017;37.812;-122.286;2023-03-23T04:35:44;16.30;63.90
72883;DHT22;61017;37.812;-122.286;2023-03-23T04:37:16;16.40;63.80
72883;DHT22;61017;37.812;-122.286;2023-03-23T04:38:47;16.10;66.40
72883;DHT22;61017;37.812;-122.286;2023-03-23T04:40:19;16.20;65.90
72883;DHT22;61017;37.812;-122.286;2023-03-23T04:41:51;16.30;64.70
72883;DHT22;61017;37.812;-122.286;2023-03-23T04:43:23;16.30;64.30
72883;DHT22;61017;37.812;-122.286;2023-03-23T04:44:58;16.30;64.00
72883;DHT22;61017;37.812;-122.286;2023-03-23T04:46:30;16.30;63.90
72883;DHT22;61017;37.812;-122.286;2023-03-23T04:48:02;16.40;63.50
72883;DHT22;61017;37.812;-122.286;2023-03-23T04:49:33;16.30;64.80
72883;DHT22;61017;37.812;-122.286;2023-03-23T04:51:05;16.20;67.90
72883;DHT22;61017;37.812;-122.286;2023-03-23T04:52:37;16.30;64.80
72883;DHT22;61017;37.812;-122.286;2023-03-23T04:54:09;16.40;64.30
72883;DHT22;61017;37.812;-122.286;2023-03-23T04:55:41;16.40;64.30
72883;DHT22;61017;37.812;-122.286;2023-03-23T04:57:15;16.40;63.80
72883;DHT22;61017;37.812;-122.286;2023-03-23T04:58:47;16.40;63.50
72883;DHT22;61017;37.812;-122.286;2023-03-23T05:00:19;16.40;63.30
72883;DHT22;61017;37.812;-122.286;2023-03-23T05:01:51;16.20;65.40
72883;DHT22;61017;37.812;-122.286;2023-03-23T05:03:22;16.30;66.10
72883;DHT22;61017;37.812;-122.286;2023-03-23T05:04:54;16.30;64.30
72883;DHT22;61017;37.812;-122.286;2023-03-23T05:06:25;16.40;64.20
72883;DHT22;61017;37.812;-122.286;2023-03-23T05:07:57;16.40;63.70
72883;DHT22;61017;37.812;-122.286;2023-03-23T05:09:28;16.50;63.70
72883;DHT22;61017;37.812;-122.286;2023-03-23T05:11:00;16.50;63.60
72883;DHT22;61017;37.812;-122.286;2023-03-23T05:12:32;16.40;64.30
72883;DHT22;61017;37.812;-122.286;2023-03-23T05:14:04;16.20;67.30
72883;DHT22;61017;37.812;-122.286;2023-03-23T05:15:36;16.30;65.10
72883;DHT22;61017;37.812;-122.286;2023-03-23T05:17:08;16.40;64.30
72883;DHT22;61017;37.812;-122.286;2023-03-23T05:18:39;16.50;64.10
72883;DHT22;61017;37.812;-122.286;2023-03-23T05:20:13;16.50;63.70
72883;DHT22;61017;37.812;-122.286;2023-03-23T05:21:45;16.50;63.70
72883;DHT22;61017;37.812;-122.286;2023-03-23T05:23:16;16.50;63.30
72883;DHT22;61017;37.812;-122.286;2023-03-23T05:24:48;16.40;64.60
72883;DHT22;61017;37.812;-122.286;2023-03-23T05:26:20;16.30;67.70
72883;DHT22;61017;37.812;-122.286;2023-03-23T05:27:52;16.40;64.50
72883;DHT22;61017;37.812;-122.286;2023-03-23T05:29:24;16.50;64.10
72883;DHT22;61017;37.812;-122.286;2023-03-23T05:30:55;16.50;63.70
72883;DHT22;61017;37.812;-122.286;2023-03-23T05:32:27;16.50;63.60
72883;DHT22;61017;37.812;-122.286;2023-03-23T05:33:59;16.60;63.20
72883;DHT22;61017;37.812;-122.286;2023-03-23T05:35:31;16.60;63.40
72883;DHT22;61017;37.812;-122.286;2023-03-23T05:37:03;16.40;65.70
72883;DHT22;61017;37.812;-122.286;2023-03-23T05:38:35;16.40;65.40
72883;DHT22;61017;37.812;-122.286;2023-03-23T05:40:07;16.50;64.20
72883;DHT22;61017;37.812;-122.286;2023-03-23T05:41:39;16.50;63.60
72883;DHT22;61017;37.812;-122.286;2023-03-23T05:43:11;16.60;63.40
72883;DHT22;61017;37.812;-122.286;2023-03-23T05:44:42;16.50;63.10
72883;DHT22;61017;37.812;-122.286;2023-03-23T05:46:14;16.60;63.00
72883;DHT22;61017;37.812;-122.286;2023-03-23T05:47:46;16.60;64.10
72883;DHT22;61017;37.812;-122.286;2023-03-23T05:49:18;16.40;67.20
72883;DHT22;61017;37.812;-122.286;2023-03-23T05:50:50;16.40;64.40
72883;DHT22;61017;37.812;-122.286;2023-03-23T05:52:21;16.50;64.00
72883;DHT22;61017;37.812;-122.286;2023-03-23T05:53:53;16.60;63.50
72883;DHT22;61017;37.812;-122.286;2023-03-23T05:55:25;16.60;63.20
72883;DHT22;61017;37.812;-122.286;2023-03-23T05:56:56;16.60;63.10
72883;DHT22;61017;37.812;-122.286;2023-03-23T05:58:28;16.60;63.10
72883;DHT22;61017;37.812;-122.286;2023-03-23T06:00:00;16.50;64.00
72883;DHT22;61017;37.812;-122.286;2023-03-23T06:01:32;16.40;66.00
72883;DHT22;61017;37.812;-122.286;2023-03-23T06:03:04;16.40;64.20
72883;DHT22;61017;37.812;-122.286;2023-03-23T06:04:35;16.50;63.80
72883;DHT22;61017;37.812;-122.286;2023-03-23T06:06:10;16.60;64.30
72883;DHT22;61017;37.812;-122.286;2023-03-23T06:07:42;16.60;63.20
72883;DHT22;61017;37.812;-122.286;2023-03-23T06:09:14;16.60;63.20
72883;DHT22;61017;37.812;-122.286;2023-03-23T06:10:45;16.60;62.90
72883;DHT22;61017;37.812;-122.286;2023-03-23T06:12:17;16.40;65.40
72883;DHT22;61017;37.812;-122.286;2023-03-23T06:13:49;16.50;65.00
72883;DHT22;61017;37.812;-122.286;2023-03-23T06:15:20;16.60;64.00
72883;DHT22;61017;37.812;-122.286;2023-03-23T06:16:52;16.60;63.70
72883;DHT22;61017;37.812;-122.286;2023-03-23T06:18:24;16.60;63.30
72883;DHT22;61017;37.812;-122.286;2023-03-23T06:19:56;16.60;63.20
72883;DHT22;61017;37.812;-122.286;2023-03-23T06:21:27;16.70;62.70
72883;DHT22;61017;37.812;-122.286;2023-03-23T06:22:59;16.60;64.00
72883;DHT22;61017;37.812;-122.286;2023-03-23T06:24:30;16.40;66.50
72883;DHT22;61017;37.812;-122.286;2023-03-23T06:26:04;16.60;64.20
72883;DHT22;61017;37.812;-122.286;2023-03-23T06:27:36;16.60;63.60
72883;DHT22;61017;37.812;-122.286;2023-03-23T06:29:08;16.60;63.50
72883;DHT22;61017;37.812;-122.286;2023-03-23T06:30:40;16.60;63.10
72883;DHT22;61017;37.812;-122.286;2023-03-23T06:32:12;16.60;62.70
72883;DHT22;61017;37.812;-122.286;2023-03-23T06:33:44;16.70;62.50
72883;DHT22;61017;37.812;-122.286;2023-03-23T06:35:16;16.50;65.00
72883;DHT22;61017;37.812;-122.286;2023-03-23T06:36:48;16.50;64.70
72883;DHT22;61017;37.812;-122.286;2023-03-23T06:38:20;16.60;63.60
72883;DHT22;61017;37.812;-122.286;2023-03-23T06:39:51;16.60;63.30
72883;DHT22;61017;37.812;-122.286;2023-03-23T06:41:23;16.70;62.90
72883;DHT22;61017;37.812;-122.286;2023-03-23T06:42:57;16.70;62.60
72883;DHT22;61017;37.812;-122.286;2023-03-23T06:44:29;16.70;62.70
72883;DHT22;61017;37.812;-122.286;2023-03-23T06:46:01;16.60;63.90
72883;DHT22;61017;37.812;-122.286;2023-03-23T06:47:32;16.40;66.60
72883;DHT22;61017;37.812;-122.286;2023-03-23T06:49:04;16.60;63.90
72883;DHT22;61017;37.812;-122.286;2023-03-23T06:50:35;16.60;63.50
72883;DHT22;61017;37.812;-122.286;2023-03-23T06:52:07;16.70;63.40
72883;DHT22;61017;37.812;-122.286;2023-03-23T06:53:38;16.70;63.20
72883;DHT22;61017;37.812;-122.286;2023-03-23T06:55:10;16.70;62.90
72883;DHT22;61017;37.812;-122.286;2023-03-23T06:56:42;16.80;62.60
72883;DHT22;61017;37.812;-122.286;2023-03-23T06:58:13;16.60;64.20
72883;DHT22;61017;37.812;-122.286;2023-03-23T06:59:45;16.60;65.10
72883;DHT22;61017;37.812;-122.286;2023-03-23T07:01:17;16.60;63.60
72883;DHT22;61017;37.812;-122.286;2023-03-23T07:02:48;16.70;63.30
72883;DHT22;61017;37.812;-122.286;2023-03-23T07:04:20;16.70;63.10
72883;DHT22;61017;37.812;-122.286;2023-03-23T07:05:51;16.80;62.80
72883;DHT22;61017;37.812;-122.286;2023-03-23T07:07:23;16.70;62.70
72883;DHT22;61017;37.812;-122.286;2023-03-23T07:08:54;16.70;62.80
72883;DHT22;61017;37.812;-122.286;2023-03-23T07:10:29;16.50;66.40
72883;DHT22;61017;37.812;-122.286;2023-03-23T07:12:01;16.60;64.20
72883;DHT22;61017;37.812;-122.286;2023-03-23T07:13:32;16.60;63.60
72883;DHT22;61017;37.812;-122.286;2023-03-23T07:15:05;16.70;63.30
72883;DHT22;61017;37.812;-122.286;2023-03-23T07:16:37;16.80;63.10
72883;DHT22;61017;37.812;-122.286;2023-03-23T07:18:08;16.80;63.00
72883;DHT22;61017;37.812;-122.286;2023-03-23T07:19:40;16.80;62.90
72883;DHT22;61017;37.812;-122.286;2023-03-23T07:21:11;16.70;64.40
72883;DHT22;61017;37.812;-122.286;2023-03-23T07:22:43;16.50;65.50
72883;DHT22;61017;37.812;-122.286;2023-03-23T07:24:14;16.70;63.80
72883;DHT22;61017;37.812;-122.286;2023-03-23T07:25:46;16.70;63.20
72883;DHT22;61017;37.812;-122.286;2023-03-23T07:27:18;16.80;63.00
72883;DHT22;61017;37.812;-122.286;2023-03-23T07:28:49;16.80;62.70
72883;DHT22;61017;37.812;-122.286;2023-03-23T07:30:21;16.80;62.80
72883;DHT22;61017;37.812;-122.286;2023-03-23T07:31:53;16.70;62.50
72883;DHT22;61017;37.812;-122.286;2023-03-23T07:33:24;16.50;65.30
72883;DHT22;61017;37.812;-122.286;2023-03-23T07:34:56;16.60;64.40
72883;DHT22;61017;37.812;-122.286;2023-03-23T07:36:27;16.70;63.80
72883;DHT22;61017;37.812;-122.286;2023-03-23T07:37:59;16.70;63.20
72883;DHT22;61017;37.812;-122.286;2023-03-23T07:39:31;16.70;63.00
72883;DHT22;61017;37.812;-122.286;2023-03-23T07:41:03;16.80;62.80
72883;DHT22;61017;37.812;-122.286;2023-03-23T07:42:34;16.70;62.60
72883;DHT22;61017;37.812;-122.286;2023-03-23T07:44:06;16.70;64.10
72883;DHT22;61017;37.812;-122.286;2023-03-23T07:45:38;16.50;66.80
72883;DHT22;61017;37.812;-122.286;2023-03-23T07:47:09;16.70;64.00
72883;DHT22;61017;37.812;-122.286;2023-03-23T07:48:41;16.70;63.30
72883;DHT22;61017;37.812;-122.286;2023-03-23T07:50:13;16.80;62.90
72883;DHT22;61017;37.812;-122.286;2023-03-23T07:51:45;16.80;62.80
72883;DHT22;61017;37.812;-122.286;2023-03-23T07:53:17;16.80;63.00
72883;DHT22;61017;37.812;-122.286;2023-03-23T07:54:49;16.80;62.30
72883;DHT22;61017;37.812;-122.286;2023-03-23T07:56:20;16.70;64.50
72883;DHT22;61017;37.812;-122.286;2023-03-23T07:57:53;16.60;65.10
72883;DHT22;61017;37.812;-122.286;2023-03-23T07:59:24;16.70;63.60
72883;DHT22;61017;37.812;-122.286;2023-03-23T08:00:56;16.70;63.30
72883;DHT22;61017;37.812;-122.286;2023-03-23T08:02:27;16.70;62.90
72883;DHT22;61017;37.812;-122.286;2023-03-23T08:04:00;16.80;62.60
72883;DHT22;61017;37.812;-122.286;2023-03-23T08:05:31;16.80;62.30
72883;DHT22;61017;37.812;-122.286;2023-03-23T08:07:04;16.70;62.70
72883;DHT22;61017;37.812;-122.286;2023-03-23T08:08:36;16.60;66.70
72883;DHT22;61017;37.812;-122.286;2023-03-23T08:10:08;16.60;63.90
72883;DHT22;61017;37.812;-122.286;2023-03-23T08:11:40;16.70;63.30
72883;DHT22;61017;37.812;-122.286;2023-03-23T08:13:11;16.70;62.60
72883;DHT22;61017;37.812;-122.286;2023-03-23T08:14:43;16.80;62.60
72883;DHT22;61017;37.812;-122.286;2023-03-23T08:16:14;16.80;62.00
72883;DHT22;61017;37.812;-122.286;2023-03-23T08:17:46;16.80;61.80
72883;DHT22;61017;37.812;-122.286;2023-03-23T08:19:18;16.70;63.60
72883;DHT22;61017;37.812;-122.286;2023-03-23T08:20:49;16.60;65.10
72883;DHT22;61017;37.812;-122.286;2023-03-23T08:22:21;16.70;63.20
72883;DHT22;61017;37.812;-122.286;2023-03-23T08:23:52;16.70;62.90
72883;DHT22;61017;37.812;-122.286;2023-03-23T08:25:24;16.80;62.70
72883;DHT22;61017;37.812;-122.286;2023-03-23T08:26:56;16.80;62.40
72883;DHT22;61017;37.812;-122.286;2023-03-23T08:28:27;16.80;62.00
72883;DHT22;61017;37.812;-122.286;2023-03-23T08:30:00;16.80;62.10
72883;DHT22;61017;37.812;-122.286;2023-03-23T08:31:32;16.60;64.70
72883;DHT22;61017;37.812;-122.286;2023-03-23T08:33:03;16.70;64.00
72883;DHT22;61017;37.812;-122.286;2023-03-23T08:34:35;16.80;62.80
72883;DHT22;61017;37.812;-122.286;2023-03-23T08:36:08;16.70;62.70
72883;DHT22;61017;37.812;-122.286;2023-03-23T08:37:39;16.80;62.30
72883;DHT22;61017;37.812;-122.286;2023-03-23T08:39:11;16.80;62.10
72883;DHT22;61017;37.812;-122.286;2023-03-23T08:40:43;16.80;62.00
72883;DHT22;61017;37.812;-122.286;2023-03-23T08:42:14;16.70;63.50
72883;DHT22;61017;37.812;-122.286;2023-03-23T08:43:46;16.60;65.70
72883;DHT22;61017;37.812;-122.286;2023-03-23T08:45:20;16.70;63.40
72883;DHT22;61017;37.812;-122.286;2023-03-23T08:46:52;16.70;62.80
72883;DHT22;61017;37.812;-122.286;2023-03-23T08:48:23;16.80;62.30
72883;DHT22;61017;37.812;-122.286;2023-03-23T08:49:55;16.80;62.10
72883;DHT22;61017;37.812;-122.286;2023-03-23T08:51:26;16.80;61.90
72883;DHT22;61017;37.812;-122.286;2023-03-23T08:52:58;16.80;61.80
72883;DHT22;61017;37.812;-122.286;2023-03-23T08:54:29;16.70;64.30
72883;DHT22;61017;37.812;-122.286;2023-03-23T08:56:09;16.60;64.30
72883;DHT22;61017;37.812;-122.286;2023-03-23T08:57:41;16.70;62.80
72883;DHT22;61017;37.812;-122.286;2023-03-23T08:59:13;16.80;62.30
72883;DHT22;61017;37.812;-122.286;2023-03-23T09:00:44;16.80;62.10
72883;DHT22;61017;37.812;-122.286;2023-03-23T09:02:16;16.80;61.80
72883;DHT22;61017;37.812;-122.286;2023-03-23T09:03:47;16.80;61.60
72883;DHT22;61017;37.812;-122.286;2023-03-23T09:05:22;16.80;62.40
72883;DHT22;61017;37.812;-122.286;2023-03-23T09:06:55;16.60;66.10
72883;DHT22;61017;37.812;-122.286;2023-03-23T09:08:28;16.70;62.90
72883;DHT22;61017;37.812;-122.286;2023-03-23T09:09:59;16.70;62.30
72883;DHT22;61017;37.812;-122.286;2023-03-23T09:11:31;16.80;62.10
72883;DHT22;61017;37.812;-122.286;2023-03-23T09:13:02;16.80;62.00
72883;DHT22;61017;37.812;-122.286;2023-03-23T09:14:35;16.80;61.70
72883;DHT22;61017;37.812;-122.286;2023-03-23T09:16:07;16.80;61.30
72883;DHT22;61017;37.812;-122.286;2023-03-23T09:17:42;16.70;63.60
72883;DHT22;61017;37.812;-122.286;2023-03-23T09:19:13;16.70;63.90
72883;DHT22;61017;37.812;-122.286;2023-03-23T09:20:45;16.70;62.20
72883;DHT22;61017;37.812;-122.286;2023-03-23T09:22:17;16.80;61.90
72883;DHT22;61017;37.812;-122.286;2023-03-23T09:23:49;16.80;61.90
72883;DHT22;61017;37.812;-122.286;2023-03-23T09:25:23;16.80;61.50
72883;DHT22;61017;37.812;-122.286;2023-03-23T09:26:55;16.80;61.30
72883;DHT22;61017;37.812;-122.286;2023-03-23T09:28:27;16.80;61.60
72883;DHT22;61017;37.812;-122.286;2023-03-23T09:29:58;16.60;65.70
72883;DHT22;61017;37.812;-122.286;2023-03-23T09:31:31;16.70;63.00
72883;DHT22;61017;37.812;-122.286;2023-03-23T09:33:03;16.70;62.10
72883;DHT22;61017;37.812;-122.286;2023-03-23T09:34:35;16.80;61.70
72883;DHT22;61017;37.812;-122.286;2023-03-23T09:36:07;16.70;61.30
72883;DHT22;61017;37.812;-122.286;2023-03-23T09:37:39;16.80;61.10
72883;DHT22;61017;37.812;-122.286;2023-03-23T09:39:11;16.80;61.00
72883;DHT22;61017;37.812;-122.286;2023-03-23T09:40:52;16.70;62.60
72883;DHT22;61017;37.812;-122.286;2023-03-23T09:49:45;16.70;61.00
72883;DHT22;61017;37.812;-122.286;2023-03-23T09:51:50;16.80;60.80
72883;DHT22;61017;37.812;-122.286;2023-03-23T09:53:32;16.50;63.70
72883;DHT22;61017;37.812;-122.286;2023-03-23T09:55:11;16.70;62.10
72883;DHT22;61017;37.812;-122.286;2023-03-23T09:56:45;16.70;61.40